KCKI

Williamsburg Regional Airport

Kingstree, South Carolina, USA
METAR KCKI 151555Z AUTO 22004KT 10SM OVC004 17/16 A2996 RMK AO2
Observed Flight Rules
Dec-15 @ 15:55 UTC (13 minutes ago) Instrument Flight Rules
Wind Visibility Clouds
220° at 4 knots 10 miles
  • Overcast at 400' AGL
Temperatures Readings
Current 17°C / 63°F
Dewpoint 16°C / 61°F
Humidity 94%
Altimeter 29.96" Hg
Pressure 1015 hPa
Elevation 21
METAR KCKI 151555Z AUTO 22004KT 10SM OVC004 17/16 A2996 RMK AO2
Observed Flight Rules
Dec-15 @ 15:55 UTC
(13 minutes ago)
LIFR
Wind Visibility
220° at 4 knots 10 miles
Clouds
  • Overcast at 400' AGL
Temperature Dewpoint
17°C / 63°F 16°C / 61°F
Humidity Altimeter Pressure
94% 29.96" Hg 1015 hPa